^^
Station Historical Data
Daily Summary for January 12, 2017 Units:  English    Metric   Both
« Previous Day
Next Day »
Daily Weekly Monthly Yearly Custom
  High: Low: Average:
Temperature: 61.1 °F 44.8 °F 53.2 °F
Dew Point: 53.0 °F 42.9 °F 49.3 °F
Humidity: 94 % 73 % 87 %
Wind Speed: 9.7 mph 0.0 mph 2.6 mph
Wind Gust: 15.0 mph - -
Wind:- - SW
Pressure: 30.17 in 29.99 in -
Precipitation: 0.09 in    
Historical Graphs
 
 
Tabular Data for January 12, 2017
Time Temperature Dew Point Pressure Wind Wind Speed Wind Gust Humidity Rainfall Rate (Hourly) solar Conditions
00:03 44.9 °F 43.0 °F 30.17 in Calm   1.2 mph 93 % 0.01 in 0.0 W/m2 RA
00:08 44.9 °F 43.0 °F 30.16 in Calm   1.0 mph 93 % 0.01 in 0.0 W/m2 RA
00:13 44.8 °F 42.9 °F 30.16 in West 0.8 mph 2.0 mph 93 % 0.01 in 0.0 W/m2 CLR
00:18 44.8 °F 42.9 °F 30.16 in SW 0.9 mph 4.0 mph 93 % 0.01 in 0.0 W/m2 CLR
00:23 44.9 °F 43.0 °F 30.16 in SSW 2.3 mph 4.0 mph 93 % 0.01 in 0.0 W/m2 CLR
00:28 45.1 °F 43.2 °F 30.16 in SW 0.9 mph 5.8 mph 93 % 0.01 in 0.0 W/m2 CLR
00:33 45.1 °F 43.2 °F 30.16 in SW 2.0 mph 3.5 mph 93 % 0.01 in 0.0 W/m2 CLR
00:38 45.2 °F 43.6 °F 30.16 in SW 0.3 mph 3.5 mph 94 % 0.00 in 0.0 W/m2 CLR
00:43 45.3 °F 43.7 °F 30.15 in SW 1.9 mph 3.5 mph 94 % 0.01 in 0.0 W/m2 RA
00:48 45.2 °F 43.3 °F 30.15 in SW 0.1 mph 2.3 mph 93 % 0.02 in 0.0 W/m2 RA
00:53 45.2 °F 43.6 °F 30.15 in SSW 0.9 mph 3.5 mph 94 % 0.02 in 0.0 W/m2 RA
00:58 45.2 °F 43.6 °F 30.14 in SSW 1.6 mph 3.5 mph 94 % 0.02 in 0.0 W/m2
01:03 45.3 °F 43.7 °F 30.14 in SSW 1.7 mph 4.6 mph 94 % 0.02 in 0.0 W/m2
01:08 45.3 °F 43.7 °F 30.14 in Calm   1.2 mph 94 % 0.03 in 0.0 W/m2 RA
01:13 45.2 °F 43.6 °F 30.14 in SSW 0.5 mph 3.5 mph 94 % 0.03 in 0.0 W/m2 RA
01:18 45.3 °F 43.7 °F 30.14 in Calm   1.2 mph 94 % 0.03 in 0.0 W/m2
01:23 45.2 °F 43.6 °F 30.14 in Calm     94 % 0.03 in 0.0 W/m2
01:28 45.5 °F 43.9 °F 30.14 in SW 1.4 mph 3.5 mph 94 % 0.03 in 0.0 W/m2
01:40 46.0 °F 44.4 °F 30.14 in WSW 0.9 mph 3.0 mph 94 % 0.02 in 0.0 W/m2
01:45 46.2 °F 44.6 °F 30.14 in Calm   3.5 mph 94 % 0.02 in 0.0 W/m2
01:50 46.4 °F 44.8 °F 30.13 in Calm     94 % 0.01 in 0.0 W/m2
01:55 46.1 °F 44.5 °F 30.13 in Calm     94 % 0.01 in 0.0 W/m2
02:00 46.3 °F 44.7 °F 30.13 in SSW 0.4 mph 4.6 mph 94 % 0.01 in 0.0 W/m2
02:05 46.6 °F 45.0 °F 30.13 in SW 3.0 mph 5.8 mph 94 % 0.01 in 0.0 W/m2
02:10 46.7 °F 45.1 °F 30.13 in Calm   6.0 mph 94 % 0.00 in 0.0 W/m2 CLR
02:15 46.8 °F 45.2 °F 30.13 in Calm   3.5 mph 94 % 0.00 in 0.0 W/m2 CLR
02:20 46.6 °F 45.0 °F 30.13 in SSW 3.8 mph 5.8 mph 94 % 0.00 in 0.0 W/m2 CLR
02:25 47.0 °F 45.4 °F 30.13 in SSW 2.8 mph 4.0 mph 94 % 0.00 in 0.0 W/m2 CLR
02:30 46.8 °F 45.2 °F 30.13 in SSW 4.1 mph 4.6 mph 94 % 0.00 in 0.0 W/m2 CLR
02:35 47.1 °F 45.5 °F 30.14 in SSW 5.3 mph 6.9 mph 94 % 0.00 in 0.0 W/m2 CLR
02:40 47.5 °F 45.9 °F 30.13 in SW 3.1 mph 5.8 mph 94 % 0.00 in 0.0 W/m2 CLR
02:45 47.7 °F 46.1 °F 30.13 in South 5.0 mph 6.9 mph 94 % 0.00 in 0.0 W/m2 CLR
02:50 47.9 °F 46.3 °F 30.12 in SSW 5.0 mph 9.0 mph 94 % 0.00 in 0.0 W/m2 CLR
02:55 48.1 °F 46.5 °F 30.12 in SSW 3.1 mph 4.6 mph 94 % 0.00 in 0.0 W/m2 CLR
03:00 48.2 °F 46.6 °F 30.12 in SSW 6.4 mph 11.5 mph 94 % 0.00 in 0.0 W/m2 CLR
03:05 48.3 °F 46.4 °F 30.12 in SSW 5.8 mph 9.2 mph 93 % 0.00 in 0.0 W/m2 CLR
03:10 48.5 °F 46.9 °F 30.12 in SSW 4.4 mph 5.0 mph 94 % 0.00 in 0.0 W/m2 CLR
03:15 48.7 °F 46.8 °F 30.12 in SSW 4.8 mph 10.4 mph 93 % 0.00 in 0.0 W/m2 CLR
03:20 48.9 °F 47.0 °F 30.12 in SW 4.9 mph 8.1 mph 93 % 0.00 in 0.0 W/m2 CLR
03:25 49.0 °F 47.1 °F 30.12 in SW 9.4 mph 13.8 mph 93 % 0.00 in 0.0 W/m2 CLR
03:30 49.2 °F 47.3 °F 30.11 in SSW 3.4 mph 7.0 mph 93 % 0.00 in 0.0 W/m2 CLR
03:35 49.2 °F 47.3 °F 30.11 in SW 2.5 mph 5.8 mph 93 % 0.00 in 0.0 W/m2 CLR
03:40 49.4 °F 47.5 °F 30.11 in WSW 2.6 mph 6.9 mph 93 % 0.00 in 0.0 W/m2 CLR
03:45 49.4 °F 47.5 °F 30.10 in SSW 3.0 mph 9.2 mph 93 % 0.00 in 0.0 W/m2 CLR
03:50 49.5 °F 47.6 °F 30.10 in SSW 4.6 mph 9.2 mph 93 % 0.00 in 0.0 W/m2 CLR
03:55 49.6 °F 47.7 °F 30.11 in SW 5.2 mph 9.2 mph 93 % 0.00 in 0.0 W/m2 CLR
04:00 50.0 °F 48.1 °F 30.10 in SW 9.7 mph 13.8 mph 93 % 0.00 in 0.0 W/m2 CLR
04:05 50.2 °F 48.3 °F 30.10 in SW 8.4 mph 12.7 mph 93 % 0.00 in 0.0 W/m2 CLR
04:10 50.4 °F 48.2 °F 30.10 in SW 7.2 mph 9.2 mph 92 % 0.00 in 0.0 W/m2 CLR
04:15 50.5 °F 48.3 °F 30.10 in SSW 4.9 mph 8.1 mph 92 % 0.00 in 0.0 W/m2 CLR
04:20 50.6 °F 48.4 °F 30.09 in South 6.3 mph 10.4 mph 92 % 0.00 in 0.0 W/m2 CLR
04:25 50.7 °F 48.5 °F 30.09 in WSW 6.9 mph 9.2 mph 92 % 0.00 in 0.0 W/m2 CLR
04:30 50.8 °F 48.6 °F 30.09 in SSW 6.8 mph 15.0 mph 92 % 0.00 in 0.0 W/m2 CLR
04:35 50.9 °F 48.7 °F 30.09 in SSW 7.7 mph 13.0 mph 92 % 0.00 in 0.0 W/m2 CLR
04:40 51.0 °F 48.8 °F 30.09 in SW 9.3 mph 11.5 mph 92 % 0.00 in 0.0 W/m2 CLR
04:45 51.1 °F 48.9 °F 30.09 in WSW 7.6 mph 11.5 mph 92 % 0.00 in 0.0 W/m2 CLR
04:51 51.2 °F 48.7 °F 30.08 in SW 5.4 mph 8.1 mph 91 % 0.00 in 0.0 W/m2 CLR
04:56 51.2 °F 48.7 °F 30.08 in South 4.2 mph 11.5 mph 91 % 0.00 in 0.0 W/m2 CLR
05:01 51.3 °F 48.8 °F 30.08 in SW 5.6 mph 9.2 mph 91 % 0.00 in 0.0 W/m2 CLR
05:06 51.3 °F 48.8 °F 30.08 in SSW 6.7 mph 15.0 mph 91 % 0.00 in 0.0 W/m2 CLR
05:11 51.4 °F 48.9 °F 30.07 in SW 6.3 mph 9.2 mph 91 % 0.00 in 0.0 W/m2 CLR
05:16 51.5 °F 49.0 °F 30.07 in SSW 6.1 mph 10.4 mph 91 % 0.00 in 0.0 W/m2 CLR
05:21 51.5 °F 48.7 °F 30.07 in SSW 8.4 mph 12.7 mph 90 % 0.00 in 0.0 W/m2 CLR
05:26 51.6 °F 48.8 °F 30.07 in SSW 7.8 mph 15.0 mph 90 % 0.00 in 0.0 W/m2 CLR
05:31 51.6 °F 48.8 °F 30.07 in South 7.4 mph 10.4 mph 90 % 0.00 in 0.0 W/m2 CLR
05:36 51.6 °F 48.8 °F 30.07 in SSW 7.8 mph 11.5 mph 90 % 0.00 in 0.0 W/m2 CLR
05:41 51.6 °F 48.8 °F 30.07 in SSW 5.0 mph 11.5 mph 90 % 0.00 in 0.0 W/m2 CLR
05:46 51.6 °F 48.8 °F 30.07 in SSW 6.8 mph 10.4 mph 90 % 0.00 in 0.0 W/m2 CLR
05:51 51.6 °F 48.5 °F 30.07 in SSW 5.3 mph 9.2 mph 89 % 0.00 in 0.0 W/m2 CLR
05:56 51.5 °F 48.4 °F 30.07 in SSW 4.8 mph 6.9 mph 89 % 0.00 in 0.0 W/m2 CLR
06:01 51.5 °F 48.4 °F 30.07 in SSW 7.2 mph 12.7 mph 89 % 0.00 in 0.0 W/m2 CLR
06:06 51.5 °F 48.4 °F 30.07 in SW 5.3 mph 6.0 mph 89 % 0.00 in 0.0 W/m2 CLR
06:11 51.6 °F 48.5 °F 30.07 in SSW 4.7 mph 6.9 mph 89 % 0.00 in 0.0 W/m2 CLR
06:16 51.5 °F 48.4 °F 30.07 in SW 2.6 mph 3.5 mph 89 % 0.00 in 0.0 W/m2 CLR
06:21 51.5 °F 48.4 °F 30.07 in SW 5.3 mph 9.2 mph 89 % 0.00 in 0.0 W/m2 CLR
06:26 51.5 °F 48.4 °F 30.07 in SW 3.8 mph 6.9 mph 89 % 0.00 in 0.0 W/m2 CLR
06:31 51.5 °F 48.4 °F 30.07 in SSW 4.4 mph 6.0 mph 89 % 0.00 in 0.0 W/m2 CLR
06:36 51.5 °F 48.4 °F 30.07 in SSW 4.9 mph 8.1 mph 89 % 0.00 in 0.0 W/m2 CLR
06:41 51.4 °F 48.3 °F 30.07 in SSW 5.1 mph 6.9 mph 89 % 0.00 in 0.0 W/m2 CLR
06:46 51.4 °F 48.3 °F 30.07 in SSW 3.4 mph 5.8 mph 89 % 0.00 in 0.0 W/m2 CLR
06:51 51.3 °F 48.2 °F 30.07 in SSW 3.9 mph 5.8 mph 89 % 0.00 in 0.0 W/m2 CLR
06:56 51.3 °F 48.2 °F 30.07 in SW 3.2 mph 4.6 mph 89 % 0.00 in 0.0 W/m2 CLR
07:01 51.3 °F 48.2 °F 30.07 in SSW 4.0 mph 5.8 mph 89 % 0.00 in 0.0 W/m2 OVC
07:06 51.3 °F 48.2 °F 30.07 in SW 3.6 mph 4.6 mph 89 % 0.00 in 0.0 W/m2 OVC
07:11 51.2 °F 48.1 °F 30.07 in SW 0.9 mph 3.5 mph 89 % 0.00 in 0.0 W/m2 OVC
07:16 51.2 °F 48.1 °F 30.08 in SW 1.5 mph 3.5 mph 89 % 0.00 in 0.0 W/m2 OVC
07:21 51.2 °F 48.1 °F 30.08 in SW 1.0 mph 3.5 mph 89 % 0.00 in 0.0 W/m2 OVC
07:26 51.2 °F 48.1 °F 30.08 in SW 3.8 mph 5.8 mph 89 % 0.00 in 0.0 W/m2 OVC
07:31 51.2 °F 48.1 °F 30.08 in SW 1.2 mph 3.5 mph 89 % 0.00 in 0.0 W/m2 OVC
07:36 51.3 °F 48.2 °F 30.08 in West 1.4 mph 6.0 mph 89 % 0.00 in 0.0 W/m2 OVC
07:41 51.3 °F 48.2 °F 30.08 in WSW 3.8 mph 6.9 mph 89 % 0.00 in 5.0 W/m2 OVC
07:46 51.3 °F 48.2 °F 30.08 in SW 2.2 mph 4.6 mph 89 % 0.00 in 7.0 W/m2 CLR
07:51 51.3 °F 48.2 °F 30.08 in SW 3.0 mph 3.5 mph 89 % 0.00 in 9.0 W/m2 SCT
07:56 51.3 °F 48.2 °F 30.08 in SW 0.2 mph 3.5 mph 89 % 0.00 in 14.0 W/m2 SCT
08:01 51.2 °F 48.1 °F 30.08 in SW 1.0 mph 3.5 mph 89 % 0.00 in 18.0 W/m2 SCT
08:06 51.2 °F 48.1 °F 30.08 in Calm   2.3 mph 89 % 0.00 in 23.0 W/m2 SCT
08:11 51.2 °F 48.1 °F 30.08 in WSW 0.4 mph 2.3 mph 89 % 0.00 in 16.0 W/m2 BKN
08:16 51.1 °F 48.0 °F 30.08 in SW 0.9 mph 3.5 mph 89 % 0.00 in 19.0 W/m2 BKN
08:21 51.1 °F 48.0 °F 30.08 in SW 0.2 mph 3.5 mph 89 % 0.00 in 14.0 W/m2 OVC
08:26 51.2 °F 48.1 °F 30.09 in SW 1.1 mph 2.3 mph 89 % 0.00 in 18.0 W/m2 OVC
08:31 51.2 °F 48.1 °F 30.09 in Calm     89 % 0.00 in 19.0 W/m2 OVC
08:36 51.2 °F 48.1 °F 30.09 in WSW 1.2 mph 3.5 mph 89 % 0.00 in 39.0 W/m2 BKN
08:41 51.2 °F 48.1 °F 30.09 in Calm     89 % 0.00 in 56.0 W/m2 SCT
08:46 51.2 °F 48.1 °F 30.08 in WSW 0.2 mph 1.2 mph 89 % 0.00 in 53.0 W/m2 BKN
08:51 51.2 °F 48.1 °F 30.08 in WSW 0.3 mph 2.3 mph 89 % 0.00 in 72.0 W/m2 SCT
08:56 51.3 °F 48.2 °F 30.09 in Calm     89 % 0.00 in 63.0 W/m2 BKN
09:01 51.3 °F 48.2 °F 30.08 in WSW 0.1 mph 2.3 mph 89 % 0.00 in 67.0 W/m2 BKN
09:06 51.3 °F 48.2 °F 30.08 in WSW 0.5 mph 1.2 mph 89 % 0.00 in 54.0 W/m2 BKN
09:11 51.3 °F 48.2 °F 30.08 in Calm     89 % 0.00 in 67.0 W/m2 BKN
09:16 51.4 °F 48.3 °F 30.09 in Calm     89 % 0.00 in 135.0 W/m2 FEW
09:21 51.5 °F 48.4 °F 30.09 in SW 0.4 mph 3.5 mph 89 % 0.00 in 91.0 W/m2 SCT
09:26 51.6 °F 48.5 °F 30.08 in SSW 0.8 mph 3.5 mph 89 % 0.00 in 86.0 W/m2 BKN
09:31 51.8 °F 48.7 °F 30.08 in SSW 1.5 mph 4.0 mph 89 % 0.00 in 65.0 W/m2 BKN
09:36 51.9 °F 48.8 °F 30.08 in SW 1.2 mph 3.0 mph 89 % 0.00 in 54.0 W/m2 OVC
09:41 51.9 °F 48.5 °F 30.08 in SW 0.6 mph 3.5 mph 88 % 0.00 in 40.0 W/m2 OVC
09:46 51.8 °F 48.7 °F 30.08 in SW 0.3 mph 1.0 mph 89 % 0.00 in 23.0 W/m2 OVC
09:51 51.8 °F 48.4 °F 30.09 in SW 0.3 mph 3.5 mph 88 % 0.00 in 26.0 W/m2 OVC
09:56 51.7 °F 48.3 °F 30.08 in Calm     88 % 0.00 in 28.0 W/m2 OVC
10:01 51.5 °F 48.1 °F 30.08 in Calm     88 % 0.00 in 35.0 W/m2 OVC
10:06 51.4 °F 48.3 °F 30.08 in Calm     89 % 0.00 in 33.0 W/m2 OVC
10:11 51.4 °F 48.3 °F 30.08 in SW 0.7 mph 3.0 mph 89 % 0.00 in 33.0 W/m2 OVC
10:16 51.7 °F 48.6 °F 30.08 in SW 0.2 mph 2.3 mph 89 % 0.00 in 42.0 W/m2 OVC
10:21 51.9 °F 48.8 °F 30.09 in SW 0.3 mph 1.0 mph 89 % 0.00 in 40.0 W/m2 OVC
10:26 52.1 °F 49.0 °F 30.09 in SW 0.7 mph 1.0 mph 89 % 0.00 in 54.0 W/m2 OVC
10:31 52.3 °F 49.2 °F 30.09 in SW 2.3 mph 4.6 mph 89 % 0.00 in 44.0 W/m2 OVC
10:36 52.5 °F 49.4 °F 30.09 in SSW 2.8 mph 4.6 mph 89 % 0.00 in 69.0 W/m2 OVC
10:41 52.7 °F 49.2 °F 30.08 in WSW 2.3 mph 3.5 mph 88 % 0.00 in 77.0 W/m2 OVC
10:47 52.9 °F 49.4 °F 30.08 in WSW 1.7 mph 3.5 mph 88 % 0.00 in 74.0 W/m2 OVC
10:49 52.9 °F 49.4 °F 30.08 in SW 1.0 mph 2.0 mph 88 % 0.00 in 74.0 W/m2 RA
10:58 53.1 °F 49.6 °F 30.07 in SW 5.0 mph 5.0 mph 88 % 0.00 in 40.0 W/m2 RA
11:03 53.1 °F 49.3 °F 30.08 in Calm   2.0 mph 87 % 0.00 in 49.0 W/m2 OVC
11:08 53.2 °F 49.7 °F 30.08 in WSW 2.1 mph 3.5 mph 88 % 0.00 in 62.0 W/m2 OVC
11:13 53.2 °F 49.4 °F 30.07 in WSW 0.2 mph 2.3 mph 87 % 0.00 in 69.0 W/m2 OVC
11:18 53.3 °F 49.5 °F 30.06 in Calm   2.3 mph 87 % 0.00 in 69.0 W/m2 OVC
11:23 53.4 °F 49.6 °F 30.06 in SW 1.9 mph 3.5 mph 87 % 0.00 in 44.0 W/m2 OVC
11:28 53.7 °F 49.9 °F 30.06 in WSW 1.2 mph 3.5 mph 87 % 0.00 in 105.0 W/m2 OVC
11:33 54.0 °F 49.9 °F 30.06 in Calm   2.3 mph 86 % 0.00 in 144.0 W/m2 BKN
11:38 54.3 °F 50.2 °F 30.06 in SW 0.1 mph 1.2 mph 86 % 0.00 in 167.0 W/m2 BKN
11:43 54.6 °F 50.5 °F 30.06 in Calm   2.3 mph 86 % 0.00 in 132.0 W/m2 BKN
11:48 55.0 °F 50.6 °F 30.05 in SW 6.9 mph 10.4 mph 85 % 0.00 in 148.0 W/m2 BKN
11:53 55.5 °F 50.7 °F 30.05 in SW 3.8 mph 8.1 mph 84 % 0.00 in 144.0 W/m2 BKN
11:58 55.8 °F 51.0 °F 30.05 in SSW 5.7 mph 9.2 mph 84 % 0.00 in 202.0 W/m2 SCT
12:03 56.3 °F 51.2 °F 30.04 in SW 2.8 mph 8.1 mph 83 % 0.00 in 169.0 W/m2 BKN
12:08 56.4 °F 51.0 °F 30.04 in SSW 3.7 mph 5.8 mph 82 % 0.00 in 144.0 W/m2 BKN
12:13 56.5 °F 51.1 °F 30.03 in SSW 5.2 mph 8.1 mph 82 % 0.00 in 160.0 W/m2 BKN
12:18 56.7 °F 51.3 °F 30.03 in SW 5.6 mph 9.0 mph 82 % 0.00 in 172.0 W/m2 BKN
12:23 56.8 °F 51.4 °F 30.03 in SW 3.9 mph 8.1 mph 82 % 0.00 in 171.0 W/m2 BKN
12:28 56.8 °F 51.0 °F 30.03 in SSW 3.6 mph 9.2 mph 81 % 0.00 in 174.0 W/m2 BKN
12:33 56.8 °F 51.0 °F 30.02 in SW 2.9 mph 5.8 mph 81 % 0.00 in 134.0 W/m2 BKN
12:38 56.7 °F 50.9 °F 30.02 in WSW 1.9 mph 4.6 mph 81 % 0.00 in 130.0 W/m2 BKN
12:44 56.6 °F 51.2 °F 30.02 in SW 1.2 mph 3.5 mph 82 % 0.00 in 130.0 W/m2 BKN
12:49 56.8 °F 51.4 °F 30.02 in SSW 5.2 mph 8.1 mph 82 % 0.00 in 169.0 W/m2 BKN
12:54 57.2 °F 51.4 °F 30.02 in SW 4.8 mph 10.0 mph 81 % 0.00 in 156.0 W/m2 BKN
12:59 57.4 °F 51.6 °F 30.01 in SSW 6.7 mph 9.2 mph 81 % 0.00 in 116.0 W/m2 BKN
13:09 57.7 °F 51.6 °F 30.01 in SW 5.4 mph 6.9 mph 80 % 0.00 in 70.0 W/m2 OVC
13:14 57.7 °F 51.6 °F 30.01 in SSW 4.4 mph 12.7 mph 80 % 0.00 in 72.0 W/m2 OVC
13:19 57.7 °F 51.2 °F 30.00 in WSW 2.9 mph 7.0 mph 79 % 0.00 in 93.0 W/m2 OVC
13:24 57.6 °F 51.1 °F 30.00 in West 6.1 mph 10.4 mph 79 % 0.00 in 86.0 W/m2 OVC
13:29 57.7 °F 51.2 °F 30.00 in SW 6.8 mph 6.8 mph 79 % 0.00 in 86.0 W/m2 OVC
13:34 57.8 °F 51.3 °F 30.00 in SW 4.0 mph 7.0 mph 79 % 0.00 in 67.0 W/m2 OVC
13:39 57.8 °F 51.3 °F 30.00 in SW 3.8 mph 5.0 mph 79 % 0.00 in 70.0 W/m2 OVC
13:44 57.8 °F 51.3 °F 30.00 in WSW 2.6 mph 5.0 mph 79 % 0.00 in 70.0 W/m2 OVC
13:49 57.5 °F 51.0 °F 30.00 in WSW 7.5 mph 8.0 mph 79 % 0.00 in 70.0 W/m2 OVC
13:54 57.4 °F 50.9 °F 30.00 in West 4.1 mph 9.0 mph 79 % 0.00 in 56.0 W/m2 OVC
13:59 57.2 °F 51.1 °F 30.00 in SSW 1.6 mph 4.0 mph 80 % 0.00 in 65.0 W/m2 OVC
14:04 57.1 °F 51.0 °F 29.99 in WSW 4.3 mph 6.9 mph 80 % 0.00 in 79.0 W/m2 OVC
14:09 57.2 °F 51.1 °F 29.99 in SW 5.8 mph 13.8 mph 80 % 0.00 in 77.0 W/m2 OVC
14:14 57.4 °F 51.3 °F 30.00 in WSW 5.4 mph 11.5 mph 80 % 0.00 in 81.0 W/m2 OVC
14:19 57.6 °F 51.5 °F 30.00 in SW 5.2 mph 7.0 mph 80 % 0.00 in 81.0 W/m2 BKN
14:24 57.7 °F 51.2 °F 30.00 in WSW 2.8 mph 5.0 mph 79 % 0.00 in 84.0 W/m2 BKN
14:29 57.7 °F 51.2 °F 30.00 in West 2.6 mph 6.0 mph 79 % 0.00 in 86.0 W/m2 BKN
14:34 57.2 °F 50.7 °F 30.00 in WNW 1.0 mph 2.3 mph 79 % 0.00 in 86.0 W/m2 BKN
14:39 56.6 °F 50.5 °F 30.00 in WNW 1.2 mph 3.5 mph 80 % 0.00 in 95.0 W/m2 BKN
14:44 56.3 °F 50.5 °F 30.00 in West 3.4 mph 5.8 mph 81 % 0.00 in 93.0 W/m2 BKN
14:49 56.1 °F 50.7 °F 30.00 in Calm   1.2 mph 82 % 0.00 in 84.0 W/m2 BKN
14:54 56.0 °F 50.6 °F 30.00 in WNW 0.3 mph 2.3 mph 82 % 0.00 in 84.0 W/m2 BKN
14:59 55.8 °F 50.4 °F 30.00 in Calm     82 % 0.00 in 72.0 W/m2 BKN
15:04 55.7 °F 50.6 °F 30.00 in Calm     83 % 0.00 in 51.0 W/m2 OVC
15:09 55.6 °F 50.5 °F 29.99 in Calm     83 % 0.00 in 63.0 W/m2 BKN
15:14 55.6 °F 50.5 °F 29.99 in WNW 0.3 mph 1.2 mph 83 % 0.00 in 56.0 W/m2 BKN
15:19 55.9 °F 50.8 °F 29.99 in West 0.1 mph 2.3 mph 83 % 0.00 in 53.0 W/m2 BKN
15:24 56.3 °F 51.2 °F 29.99 in SW 1.0 mph 3.5 mph 83 % 0.00 in 63.0 W/m2 BKN
15:29 56.6 °F 51.5 °F 29.99 in WSW 2.5 mph 5.8 mph 83 % 0.00 in 65.0 W/m2 BKN
15:34 56.9 °F 51.5 °F 30.00 in West 0.1 mph 2.0 mph 82 % 0.00 in 53.0 W/m2 BKN
15:39 56.8 °F 51.4 °F 30.00 in West 1.9 mph 3.5 mph 82 % 0.00 in 39.0 W/m2 BKN
15:44 56.6 °F 51.2 °F 29.99 in West 0.9 mph 3.5 mph 82 % 0.00 in 53.0 W/m2 BKN
15:49 56.4 °F 51.0 °F 30.00 in Calm   3.5 mph 82 % 0.00 in 54.0 W/m2 BKN
15:54 56.2 °F 50.8 °F 29.99 in WSW 0.9 mph 2.0 mph 82 % 0.00 in 51.0 W/m2 SCT
15:59 56.3 °F 50.9 °F 30.00 in West 0.2 mph 3.5 mph 82 % 0.00 in 40.0 W/m2 BKN
16:04 56.4 °F 51.0 °F 30.00 in West 0.6 mph 2.0 mph 82 % 0.00 in 46.0 W/m2 SCT
16:09 56.6 °F 51.2 °F 30.00 in West 1.5 mph 3.5 mph 82 % 0.00 in 42.0 W/m2 SCT
16:14 56.6 °F 51.2 °F 30.00 in Calm     82 % 0.00 in 33.0 W/m2 SCT
16:19 56.3 °F 50.9 °F 30.00 in West 0.6 mph 3.5 mph 82 % 0.00 in 28.0 W/m2 SCT
16:24 56.0 °F 50.6 °F 30.00 in West 0.6 mph 2.0 mph 82 % 0.00 in 28.0 W/m2 SCT
16:29 55.9 °F 50.8 °F 30.00 in Calm     83 % 0.00 in 25.0 W/m2 FEW
16:34 55.9 °F 50.8 °F 30.00 in West 0.1 mph 2.0 mph 83 % 0.00 in 21.0 W/m2 FEW
16:39 55.9 °F 50.8 °F 30.00 in West 0.1 mph 1.2 mph 83 % 0.00 in 12.0 W/m2 FEW
16:44 55.9 °F 50.8 °F 30.00 in Calm     83 % 0.00 in 11.0 W/m2 CLR
16:49 56.0 °F 50.9 °F 30.00 in WSW 1.9 mph 4.6 mph 83 % 0.00 in 7.0 W/m2 CLR
16:54 56.0 °F 50.9 °F 30.01 in WSW 1.3 mph 2.3 mph 83 % 0.00 in 0.0 W/m2 OVC
16:59 55.9 °F 50.8 °F 30.00 in Calm   1.2 mph 83 % 0.00 in 0.0 W/m2 OVC
17:04 55.9 °F 50.8 °F 30.01 in Calm     83 % 0.00 in 0.0 W/m2 CLR
17:09 55.7 °F 50.6 °F 30.00 in WSW 0.3 mph 2.3 mph 83 % 0.00 in 0.0 W/m2 CLR
17:14 55.6 °F 50.5 °F 30.00 in Calm   2.3 mph 83 % 0.00 in 0.0 W/m2 CLR
17:19 55.3 °F 50.2 °F 30.00 in Calm   2.3 mph 83 % 0.00 in 0.0 W/m2 CLR
17:24 55.2 °F 50.1 °F 30.00 in SW 2.7 mph 4.0 mph 83 % 0.00 in 0.0 W/m2 CLR
17:29 55.5 °F 50.7 °F 30.00 in SW 0.4 mph 3.5 mph 84 % 0.00 in 0.0 W/m2 CLR
17:34 55.7 °F 50.9 °F 30.00 in SW 1.7 mph 3.5 mph 84 % 0.00 in 0.0 W/m2 CLR
17:40 56.1 °F 51.3 °F 30.00 in SSW 1.8 mph 5.0 mph 84 % 0.00 in 0.0 W/m2 CLR
17:45 56.4 °F 51.6 °F 30.00 in SSW 2.4 mph 5.8 mph 84 % 0.00 in 0.0 W/m2 CLR
17:50 56.9 °F 51.8 °F 30.00 in SW 4.8 mph 8.0 mph 83 % 0.00 in 0.0 W/m2 CLR
17:55 57.5 °F 52.4 °F 30.00 in SW 3.4 mph 6.9 mph 83 % 0.00 in 0.0 W/m2 CLR
18:00 58.0 °F 52.5 °F 30.00 in SSW 3.8 mph 9.2 mph 82 % 0.00 in 0.0 W/m2 CLR
18:05 58.7 °F 52.9 °F 30.00 in SSW 4.4 mph 7.0 mph 81 % 0.00 in 0.0 W/m2 CLR
18:10 59.2 °F 52.7 °F 30.00 in SSW 2.6 mph 7.0 mph 79 % 0.00 in 0.0 W/m2 CLR
18:15 59.9 °F 53.0 °F 30.01 in SSW 5.0 mph 8.1 mph 78 % 0.00 in 0.0 W/m2 CLR
18:20 60.2 °F 52.6 °F 30.01 in SW 5.5 mph 11.5 mph 76 % 0.00 in 0.0 W/m2 CLR
18:25 60.6 °F 52.6 °F 30.01 in SW 4.9 mph 10.4 mph 75 % 0.00 in 0.0 W/m2 CLR
18:30 60.8 °F 52.5 °F 30.01 in SSW 2.9 mph 7.0 mph 74 % 0.00 in 0.0 W/m2 CLR
18:35 61.0 °F 52.7 °F 30.02 in SW 7.0 mph 12.0 mph 74 % 0.00 in 0.0 W/m2 CLR
18:40 61.1 °F 52.4 °F 30.02 in SW 6.9 mph 9.2 mph 73 % 0.00 in 0.0 W/m2 CLR
18:45 61.1 °F 52.4 °F 30.02 in SW 3.6 mph 8.1 mph 73 % 0.00 in 0.0 W/m2 CLR
18:50 61.0 °F 52.3 °F 30.02 in SW 2.2 mph 3.5 mph 73 % 0.00 in 0.0 W/m2 CLR
18:55 61.0 °F 52.3 °F 30.02 in WSW 2.3 mph 4.6 mph 73 % 0.00 in 0.0 W/m2 CLR
19:00 60.8 °F 52.1 °F 30.05 in NW 6.9 mph 10.0 mph 73 % 0.00 in 0.0 W/m2 CLR
19:05 59.9 °F 51.2 °F 30.05 in NNW 8.7 mph 12.7 mph 73 % 0.00 in 0.0 W/m2 CLR
19:10 58.9 °F 51.0 °F 30.06 in North 7.0 mph 10.4 mph 75 % 0.00 in 0.0 W/m2 CLR
19:15 58.2 °F 50.7 °F 30.06 in NW 4.6 mph 5.8 mph 76 % 0.00 in 0.0 W/m2 CLR
19:20 57.8 °F 50.6 °F 30.07 in NW 4.2 mph 4.6 mph 77 % 0.00 in 0.0 W/m2 CLR
19:25 57.5 °F 50.7 °F 30.07 in WNW 1.6 mph 4.6 mph 78 % 0.00 in 0.0 W/m2 CLR
19:30 57.4 °F 50.9 °F 30.07 in WNW 0.5 mph 2.3 mph 79 % 0.00 in 0.0 W/m2 CLR
19:35 57.3 °F 50.8 °F 30.07 in WNW 1.4 mph 3.5 mph 79 % 0.00 in 0.0 W/m2 CLR
19:40 57.3 °F 50.8 °F 30.07 in Calm     79 % 0.00 in 0.0 W/m2 CLR
19:45 57.1 °F 50.6 °F 30.08 in WNW 0.4 mph 1.2 mph 79 % 0.00 in 0.0 W/m2 CLR
19:50 56.8 °F 50.4 °F 30.09 in West 1.3 mph 3.5 mph 79 % 0.00 in 0.0 W/m2 CLR
19:55 56.7 °F 50.6 °F 30.08 in Calm     80 % 0.00 in 0.0 W/m2 CLR
20:00 56.5 °F 50.4 °F 30.09 in Calm     80 % 0.00 in 0.0 W/m2 CLR
20:05 56.1 °F 50.0 °F 30.08 in Calm     80 % 0.01 in 0.0 W/m2 RA
20:10 55.6 °F 49.9 °F 30.08 in WSW 0.8 mph 3.5 mph 81 % 0.01 in 0.0 W/m2 RA
20:15 55.5 °F 50.1 °F 30.08 in Calm   1.2 mph 82 % 0.01 in 0.0 W/m2
20:20 55.3 °F 49.9 °F 30.08 in WSW 0.4 mph 2.3 mph 82 % 0.01 in 0.0 W/m2
20:25 55.1 °F 50.0 °F 30.07 in Calm     83 % 0.01 in 0.0 W/m2
20:30 54.9 °F 49.8 °F 30.07 in Calm     83 % 0.01 in 0.0 W/m2
20:35 54.8 °F 50.1 °F 30.08 in Calm     84 % 0.01 in 0.0 W/m2
20:40 54.8 °F 50.1 °F 30.08 in Calm     84 % 0.01 in 0.0 W/m2
20:45 54.8 °F 50.1 °F 30.08 in Calm     84 % 0.01 in 0.0 W/m2
20:50 54.7 °F 50.3 °F 30.08 in Calm     85 % 0.01 in 0.0 W/m2
20:56 54.4 °F 50.0 °F 30.08 in Calm     85 % 0.01 in 0.0 W/m2
21:01 54.3 °F 49.9 °F 30.09 in Calm     85 % 0.01 in 0.0 W/m2
21:06 54.2 °F 50.1 °F 30.09 in Calm     86 % 0.00 in 0.0 W/m2 CLR
21:11 53.8 °F 49.7 °F 30.09 in Calm     86 % 0.00 in 0.0 W/m2 CLR
21:16 53.7 °F 49.9 °F 30.09 in Calm     87 % 0.00 in 0.0 W/m2 CLR
21:21 53.7 °F 50.2 °F 30.10 in Calm     88 % 0.00 in 0.0 W/m2 CLR
21:26 53.5 °F 50.0 °F 30.10 in Calm     88 % 0.00 in 0.0 W/m2 CLR
21:31 53.3 °F 49.8 °F 30.10 in Calm     88 % 0.00 in 0.0 W/m2 CLR
21:36 53.2 °F 49.7 °F 30.11 in WSW 0.1 mph 1.2 mph 88 % 0.01 in 0.0 W/m2 RA
21:41 53.2 °F 49.7 °F 30.11 in WSW 2.0 mph 3.5 mph 88 % 0.02 in 0.0 W/m2 RA
21:46 53.4 °F 50.2 °F 30.11 in SW 4.5 mph 8.1 mph 89 % 0.03 in 0.0 W/m2 RA
21:51 53.9 °F 51.0 °F 30.11 in SW 6.5 mph 8.1 mph 90 % 0.03 in 0.0 W/m2 RA
21:56 54.2 °F 51.3 °F 30.10 in SW 2.9 mph 5.8 mph 90 % 0.04 in 0.0 W/m2 RA
22:01 54.5 °F 51.6 °F 30.10 in SSW 5.5 mph 10.4 mph 90 % 0.04 in 0.0 W/m2 RA
22:07 54.5 °F 51.6 °F 30.10 in SSW 4.0 mph 9.2 mph 90 % 0.04 in 0.0 W/m2
22:12 54.5 °F 51.6 °F 30.10 in SW 3.9 mph 5.0 mph 90 % 0.04 in 0.0 W/m2
22:17 54.7 °F 52.1 °F 30.10 in SW 5.3 mph 7.0 mph 91 % 0.04 in 0.0 W/m2
22:22 54.8 °F 52.2 °F 30.10 in SW 2.0 mph 3.5 mph 91 % 0.04 in 0.0 W/m2
22:27 54.9 °F 52.3 °F 30.10 in SW 2.2 mph 3.5 mph 91 % 0.04 in 0.0 W/m2
22:32 54.9 °F 52.3 °F 30.11 in West 4.3 mph 6.9 mph 91 % 0.04 in 0.0 W/m2
22:37 54.8 °F 52.2 °F 30.11 in WSW 1.4 mph 3.5 mph 91 % 0.03 in 0.0 W/m2
22:42 54.8 °F 52.2 °F 30.11 in WSW 1.5 mph 3.5 mph 91 % 0.02 in 0.0 W/m2
22:47 54.7 °F 52.1 °F 30.11 in WSW 5.3 mph 8.1 mph 91 % 0.01 in 0.0 W/m2
22:52 54.7 °F 52.1 °F 30.11 in SW 4.0 mph 5.8 mph 91 % 0.02 in 0.0 W/m2 RA
22:57 54.6 °F 52.0 °F 30.11 in WSW 4.1 mph 8.1 mph 91 % 0.01 in 0.0 W/m2 RA
23:02 54.5 °F 52.2 °F 30.11 in West 4.5 mph 6.9 mph 92 % 0.01 in 0.0 W/m2
23:07 54.3 °F 52.0 °F 30.12 in WSW 3.4 mph 6.0 mph 92 % 0.01 in 0.0 W/m2
23:12 54.3 °F 52.0 °F 30.11 in WSW 5.8 mph 10.4 mph 92 % 0.01 in 0.0 W/m2
23:17 54.3 °F 52.0 °F 30.11 in SW 4.3 mph 6.9 mph 92 % 0.01 in 0.0 W/m2
23:22 54.4 °F 52.1 °F 30.12 in WSW 3.3 mph 6.9 mph 92 % 0.01 in 0.0 W/m2
23:27 54.4 °F 52.1 °F 30.12 in WSW 3.4 mph 6.9 mph 92 % 0.01 in 0.0 W/m2
23:32 54.3 °F 52.0 °F 30.12 in WSW 3.6 mph 5.8 mph 92 % 0.01 in 0.0 W/m2
23:37 54.3 °F 52.0 °F 30.12 in WSW 1.7 mph 3.5 mph 92 % 0.01 in 0.0 W/m2
23:42 54.2 °F 51.9 °F 30.12 in WSW 0.5 mph 1.2 mph 92 % 0.01 in 0.0 W/m2
23:47 54.2 °F 51.9 °F 30.13 in WSW 0.1 mph 1.0 mph 92 % 0.01 in 0.0 W/m2
23:52 54.1 °F 51.8 °F 30.13 in West 0.6 mph 2.3 mph 92 % 0.00 in 0.0 W/m2
23:57 54.0 °F 51.7 °F 30.13 in West 0.6 mph 2.3 mph 92 % 0.00 in 0.0 W/m2 CLR
Air Products Campus Weather
Compliments of Weather Underground - 3.25 mb